This demonstration page uses our WeatherBlox Daily Observations layout. Learn more.

38.88101, -77.10428

Hourly Observations for August 26, 2018

Temp ( °F °C ) Dew Point ( °F °C ) Humidity (%) Winds ( mph kmh ) Pressure ( in mb ) Visibility ( mi km ) Precip ( " mm )
12:52 am 00:52 Mostly Cloudy 71 21.7 61 16.1 71 71 SW 3 6 30.21 1023 10 16.0934 0 0
1:52 am 01:52 Mostly Cloudy 71 21.7 62 16.7 73 73 Calm 30.21 1023 10 16.0934 0 0
2:52 am 02:52 Mostly Cloudy 70 21.1 63 17.2 79 79 Calm 30.2 1023 10 16.0934 0 0
3:52 am 03:52 Mostly Cloudy 69 20.6 63 17.2 81 81 SSW 5 7 30.2 1023 10 16.0934 0 0
4:52 am 04:52 Partly Cloudy 68 20 63 17.2 84 84 SSW 3 6 30.19 1022 10 16.0934 0 0
5:52 am 05:52 Partly Cloudy 69 20.6 63 17.2 81 81 SSW 3 6 30.19 1022 10 16.0934 0 0
6:52 am 06:52 Mostly Sunny 69 20.6 64 17.8 84 84 S 8 13 30.19 1023 10 16.0934 0 0
7:52 am 07:52 Mostly Sunny 70 21.1 64 17.8 82 82 S 7 11 30.2 1023 10 16.0934 0 0
8:52 am 08:52 Sunny 73 22.8 64 17.8 74 74 S 10 17 30.19 1022 10 16.0934 0 0
9:52 am 09:52 Mostly Sunny 78 25.6 65 18.3 64 64 S 10 17 30.19 1022 10 16.0934 0 0
10:52 am 10:52 Mostly Sunny 81 27.2 63 17.2 54 54 SSW 13 20 30.18 1022 10 16.0934 0 0
11:52 am 11:52 Mostly Sunny 82 27.8 64 17.8 55 55 S 9 15 30.16 1021 10 16.0934 0 0
12:52 pm 12:52 Mostly Sunny 83 28.3 67 19.4 59 59 S 13 20 30.15 1021 10 16.0934 0 0
1:52 pm 13:52 Mostly Sunny 84 28.9 68 20 59 59 S 14 22 30.14 1021 10 16.0934 0 0
2:52 pm 14:52 Mostly Sunny 85 29.4 68 20 57 57 S 15 24 30.11 1020 10 16.0934 0 0
3:52 pm 15:52 Mostly Sunny 86 30 68 20 55 55 S 12 19 30.1 1019 10 16.0934 0 0
4:52 pm 16:52 Partly Cloudy 86 30 68 20 55 55 S 14 22 30.09 1019 10 16.0934 0 0
5:52 pm 17:52 Partly Cloudy 86 30 70 21.1 59 59 S 9 15 30.09 1019 10 16.0934 0 0
6:52 pm 18:52 Mostly Cloudy 84 28.9 70 21.1 63 63 S 9 15 30.09 1019 10 16.0934 0 0
7:52 pm 19:52 Mostly Cloudy 83 28.3 69 20.6 63 63 S 8 13 30.08 1019 10 16.0934 0 0
8:52 pm 20:52 Mostly Cloudy 80 26.7 71 21.7 74 74 S 9 15 30.09 1019 10 16.0934 0 0
9:52 pm 21:52 Mostly Cloudy 79 26.1 71 21.7 77 77 SSW 5 7 30.1 1019 10 16.0934 0 0
10:52 pm 22:52 Mostly Cloudy 79 26.1 71 21.7 77 77 S 6 9 30.11 1020 10 16.0934 0 0
11:52 pm 23:52 Mostly Cloudy 78 25.6 72 22.2 82 82 S 7 11 30.1 1019 10 16.0934 0 0

Powered by AerisWeather